createdAt,value
2019-05-17T00:00:57.153Z,101031.20
2019-05-17T00:03:27.021Z,101035.62
2019-05-17T00:05:58.135Z,101031.20
2019-05-17T00:08:34.404Z,101031.20
2019-05-17T00:11:01.076Z,101031.50
2019-05-17T00:13:31.846Z,101030.85
2019-05-17T00:16:02.791Z,101023.20
2019-05-17T00:18:33.644Z,101019.55
2019-05-17T00:21:04.502Z,101014.25
2019-05-17T00:23:37.452Z,101026.23
2019-05-17T00:26:07.549Z,101020.61
2019-05-17T00:28:38.613Z,101014.81
2019-05-17T00:31:09.588Z,101013.63
2019-05-17T00:33:40.548Z,101012.42
2019-05-17T00:36:11.505Z,101005.44
2019-05-17T00:38:48.310Z,101005.86
2019-05-17T00:41:17.478Z,100998.84
2019-05-17T00:43:47.345Z,100993.47
2019-05-17T00:46:18.406Z,100993.27
2019-05-17T00:48:49.365Z,100986.57
2019-05-17T00:51:20.219Z,100987.73
2019-05-17T00:53:51.280Z,100983.22
2019-05-17T00:56:22.241Z,100999.27
2019-05-17T00:58:53.299Z,101000.98
2019-05-17T01:01:26.902Z,100997.00
2019-05-17T01:03:57.230Z,100999.29
2019-05-17T01:06:28.323Z,100995.50
2019-05-17T01:09:01.893Z,100994.55
2019-05-17T01:11:33.104Z,100998.53
2019-05-17T01:14:06.823Z,100991.11
2019-05-17T01:16:37.357Z,100990.47
2019-05-17T01:19:08.435Z,100992.28
2019-05-17T01:21:39.392Z,100978.28
2019-05-17T01:24:10.230Z,100987.33
2019-05-17T01:26:41.190Z,100978.05
2019-05-17T01:29:12.146Z,100978.05
2019-05-17T01:31:43.207Z,100979.03
2019-05-17T01:34:16.472Z,100980.66
2019-05-17T01:36:46.630Z,100980.77
2019-05-17T01:39:21.335Z,100980.85
2019-05-17T01:41:50.314Z,100984.64
2019-05-17T01:44:21.493Z,100979.45
2019-05-17T01:46:52.452Z,100965.44
2019-05-17T01:49:23.514Z,100966.84
2019-05-17T01:51:56.662Z,100967.72
2019-05-17T01:54:27.005Z,100965.44
2019-05-17T01:56:57.921Z,100966.54
2019-05-17T01:59:28.760Z,100970.62
2019-05-17T02:02:01.372Z,100966.95
2019-05-17T02:04:32.333Z,100970.29
2019-05-17T02:07:03.273Z,100976.77
2019-05-17T02:09:38.603Z,100975.25
2019-05-17T02:12:07.457Z,100972.33
2019-05-17T02:14:38.499Z,100973.73
2019-05-17T02:17:09.459Z,100968.87
2019-05-17T02:19:40.438Z,100985.58
2019-05-17T02:22:11.290Z,100982.03
2019-05-17T02:24:42.358Z,100995.27
2019-05-17T02:27:13.495Z,100994.98
2019-05-17T02:29:44.557Z,100995.84
2019-05-17T02:32:15.740Z,100993.78
2019-05-17T02:34:46.799Z,100989.89
2019-05-17T02:37:17.636Z,100985.81
2019-05-17T02:39:58.296Z,100982.47
2019-05-17T02:42:22.436Z,100979.88
2019-05-17T02:44:53.294Z,100974.38
2019-05-17T02:47:24.130Z,100979.97
2019-05-17T02:49:55.189Z,100986.51
2019-05-17T02:52:26.169Z,100989.61
2019-05-17T02:54:57.230Z,100990.84
2019-05-17T02:57:28.200Z,100997.94
2019-05-17T02:59:59.231Z,100989.73
2019-05-17T03:02:33.835Z,100991.64
2019-05-17T03:05:04.102Z,100995.91
2019-05-17T03:07:35.088Z,100991.67
2019-05-17T03:10:18.113Z,100992.78
2019-05-17T03:12:39.562Z,100998.61
2019-05-17T03:15:12.844Z,100997.61
2019-05-17T03:17:43.975Z,100994.33
2019-05-17T03:20:15.393Z,100992.96
2019-05-17T03:22:45.934Z,100993.02
2019-05-17T03:25:17.014Z,100987.84
2019-05-17T03:27:47.876Z,100987.67
2019-05-17T03:30:25.343Z,100987.39
2019-05-17T03:32:56.239Z,100990.03
2019-05-17T03:35:26.901Z,100986.13
2019-05-17T03:37:57.410Z,100995.90
2019-05-17T03:40:56.542Z,101007.94
2019-05-17T03:43:02.862Z,101005.61
2019-05-17T03:45:34.145Z,101009.30
2019-05-17T03:48:05.363Z,101007.78
2019-05-17T03:50:36.198Z,101011.55
2019-05-17T03:53:06.859Z,101001.88
2019-05-17T03:55:37.923Z,101000.56
2019-05-17T03:58:08.880Z,100990.63
2019-05-17T04:00:42.583Z,100996.42
2019-05-17T04:03:13.598Z,100996.97
2019-05-17T04:05:44.617Z,100989.75
2019-05-17T04:08:15.482Z,100987.62
2019-05-17T04:10:46.533Z,100990.05
2019-05-17T04:13:17.493Z,100983.82
2019-05-17T04:15:48.554Z,100987.38
2019-05-17T04:18:19.391Z,100995.25
2019-05-17T04:20:52.847Z,100993.06
2019-05-17T04:23:23.431Z,100990.01
2019-05-17T04:25:54.318Z,100988.39
2019-05-17T04:28:25.187Z,100989.10
2019-05-17T04:30:56.052Z,100995.14
2019-05-17T04:33:26.984Z,100987.83
2019-05-17T04:35:57.960Z,100991.88
2019-05-17T04:38:28.695Z,100996.84
2019-05-17T04:41:02.847Z,101001.19
2019-05-17T04:43:33.321Z,101004.98
2019-05-17T04:46:04.334Z,101006.91
2019-05-17T04:48:35.419Z,101007.30
2019-05-17T04:51:06.370Z,101011.97
2019-05-17T04:53:37.116Z,101023.55
2019-05-17T04:56:08.185Z,101029.87
2019-05-17T04:58:39.147Z,101025.36
2019-05-17T05:01:12.972Z,101032.92
2019-05-17T05:03:42.989Z,101033.02
2019-05-17T05:06:14.066Z,101029.63
2019-05-17T05:08:45.489Z,101032.92
2019-05-17T05:11:16.391Z,101033.87
2019-05-17T05:13:47.346Z,101027.69
2019-05-17T05:16:18.391Z,101030.36
2019-05-17T05:18:51.911Z,101030.80
2019-05-17T05:21:22.995Z,101024.58
2019-05-17T05:23:54.044Z,101027.19
2019-05-17T05:26:24.983Z,101026.30
2019-05-17T05:28:55.876Z,101027.17
2019-05-17T05:31:26.928Z,101025.05
2019-05-17T05:33:57.979Z,101017.72
2019-05-17T05:36:32.797Z,101025.45
2019-05-17T05:39:05.113Z,101018.70
2019-05-17T05:41:36.173Z,101024.62
2019-05-17T05:44:07.031Z,101021.01
2019-05-17T05:46:38.065Z,101019.14
2019-05-17T05:49:09.216Z,101019.41
2019-05-17T05:51:42.289Z,101020.59
2019-05-17T05:54:12.567Z,101021.03
2019-05-17T05:56:43.563Z,101022.72
2019-05-17T05:59:14.620Z,101014.53
2019-05-17T06:01:45.585Z,101016.16
2019-05-17T06:04:16.717Z,101018.77
2019-05-17T06:06:47.393Z,101020.45
2019-05-17T06:09:18.364Z,101016.45
2019-05-17T06:11:51.819Z,101011.02
2019-05-17T06:14:22.706Z,101012.92
2019-05-17T06:16:53.973Z,101012.70
2019-05-17T06:19:25.054Z,101002.59
2019-05-17T06:21:56.120Z,101005.56
2019-05-17T06:24:27.070Z,101005.79
2019-05-17T06:26:57.701Z,101001.80
2019-05-17T06:29:28.558Z,101004.09
2019-05-17T06:31:59.431Z,101004.05
2019-05-17T06:34:32.704Z,101012.81
2019-05-17T06:37:02.869Z,101012.81
2019-05-17T06:39:33.826Z,101017.66
2019-05-17T06:42:04.809Z,101013.31
2019-05-17T06:44:35.639Z,101020.69
2019-05-17T06:47:06.700Z,101020.69
2019-05-17T06:49:37.553Z,101016.34
2019-05-17T06:52:08.428Z,101016.34
2019-05-17T06:54:41.581Z,101013.52
2019-05-17T06:57:12.894Z,101012.28
2019-05-17T06:59:43.848Z,101012.28
2019-05-17T07:02:14.921Z,101009.05
2019-05-17T07:04:45.758Z,101009.32
2019-05-17T07:07:24.085Z,101011.73
2019-05-17T07:09:56.413Z,101011.68
2019-05-17T07:12:30.474Z,101012.47
2019-05-17T07:15:02.910Z,101014.64
2019-05-17T07:17:34.073Z,101007.46
2019-05-17T07:20:05.308Z,101006.63
2019-05-17T07:22:35.985Z,101008.12
2019-05-17T07:25:10.759Z,101002.00
2019-05-17T07:27:45.440Z,101001.64
2019-05-17T07:30:13.979Z,101001.64
2019-05-17T07:32:44.524Z,101006.14
2019-05-17T07:35:15.260Z,101010.98
2019-05-17T07:37:46.345Z,101012.36
2019-05-17T07:40:19.690Z,101002.85
2019-05-17T07:42:50.213Z,101001.45
2019-05-17T07:45:21.156Z,101003.17
2019-05-17T07:47:52.218Z,101002.70
2019-05-17T07:50:24.814Z,100991.85
2019-05-17T07:52:55.652Z,100995.36
2019-05-17T07:55:26.612Z,100990.13
2019-05-17T07:58:10.039Z,100986.70
2019-05-17T08:00:40.824Z,101000.62
2019-05-17T08:03:13.314Z,101001.97
2019-05-17T08:05:44.369Z,100998.67
2019-05-17T08:08:15.023Z,101000.17
2019-05-17T08:10:45.981Z,100997.45
2019-05-17T08:13:27.269Z,100997.23
2019-05-17T08:15:50.156Z,100995.06
2019-05-17T08:18:21.311Z,100986.24
2019-05-17T08:20:52.170Z,100987.03
2019-05-17T08:23:23.106Z,100989.96
2019-05-17T08:26:07.475Z,100989.87
2019-05-17T08:28:50.582Z,100986.61
2019-05-17T08:31:21.672Z,100979.36
2019-05-17T08:33:52.630Z,100976.78
2019-05-17T08:36:23.492Z,100979.36
2019-05-17T08:38:54.547Z,100973.45
2019-05-17T08:41:25.405Z,100976.77
2019-05-17T08:43:56.554Z,100971.41
2019-05-17T08:46:35.338Z,100973.38
2019-05-17T08:49:09.601Z,100965.42
2019-05-17T08:51:39.910Z,100967.67
2019-05-17T08:54:11.735Z,100968.92
2019-05-17T08:56:55.826Z,100968.05
2019-05-17T08:59:29.695Z,100964.34
2019-05-17T09:02:00.569Z,100963.66
2019-05-17T09:04:31.422Z,100963.31
2019-05-17T09:07:03.221Z,100960.34
2019-05-17T09:09:34.059Z,100961.59
2019-05-17T09:12:06.365Z,100965.70
2019-05-17T09:17:30.776Z,100952.54
2019-05-17T09:20:02.503Z,100956.05
2019-05-17T09:22:39.392Z,100959.45
2019-05-17T09:25:17.106Z,100946.05
2019-05-17T09:27:45.962Z,100951.84
2019-05-17T09:30:25.455Z,100956.42
2019-05-17T09:33:00.342Z,100945.06
2019-05-17T09:35:30.835Z,100946.59
2019-05-17T09:38:09.816Z,100944.39
2019-05-17T09:40:40.270Z,100943.01
2019-05-17T09:43:11.148Z,100934.10
2019-05-17T09:45:50.816Z,100942.89
2019-05-17T09:48:39.640Z,100940.08
2019-05-17T09:51:10.661Z,100931.36
2019-05-17T09:53:41.695Z,100927.83
2019-05-17T09:56:25.757Z,100932.19
2019-05-17T09:59:05.855Z,100931.91
2019-05-17T10:01:39.453Z,100937.04
2019-05-17T10:04:16.092Z,100925.56
2019-05-17T10:06:56.150Z,100922.87
2019-05-17T10:09:27.721Z,100920.16
2019-05-17T10:12:00.032Z,100916.30
2019-05-17T10:14:31.342Z,100921.27
2019-05-17T10:17:02.139Z,100917.84
2019-05-17T10:19:36.464Z,100915.98
2019-05-17T10:22:10.340Z,100905.23
2019-05-17T10:24:42.427Z,100901.55
2019-05-17T10:27:14.649Z,100911.30
2019-05-17T10:29:45.721Z,100910.58
2019-05-17T10:32:16.558Z,100910.98
2019-05-17T10:34:49.520Z,100920.96
2019-05-17T10:37:20.423Z,100913.50
2019-05-17T10:39:51.378Z,100911.63
2019-05-17T10:42:22.452Z,100910.25
2019-05-17T10:44:54.764Z,100913.70
2019-05-17T10:47:25.582Z,100907.03
2019-05-17T10:49:56.342Z,100897.06
2019-05-17T10:52:29.732Z,100904.36
2019-05-17T10:54:59.808Z,100901.34
2019-05-17T10:57:31.069Z,100898.20
2019-05-17T11:00:01.914Z,100896.09
2019-05-17T11:02:32.987Z,100903.84
2019-05-17T11:05:04.766Z,100898.55
2019-05-17T11:07:35.419Z,100893.86
2019-05-17T11:10:11.236Z,100892.13
2019-05-17T11:12:40.398Z,100901.06
2019-05-17T11:15:12.268Z,100897.25
2019-05-17T11:17:43.318Z,100890.36
2019-05-17T11:20:14.740Z,100884.67
2019-05-17T11:22:45.238Z,100886.06
2019-05-17T11:25:16.299Z,100888.30
2019-05-17T11:28:18.031Z,100873.39
2019-05-17T11:30:59.177Z,100876.88
2019-05-17T11:33:31.228Z,100880.77
2019-05-17T11:36:02.333Z,100867.28
2019-05-17T11:38:33.620Z,100872.44
2019-05-17T11:41:21.190Z,100876.03
2019-05-17T11:44:05.927Z,100872.50
2019-05-17T11:46:36.852Z,100868.52
2019-05-17T11:49:07.966Z,100876.33
2019-05-17T11:51:39.244Z,100877.06
2019-05-17T11:54:16.343Z,100871.68
2019-05-17T11:56:47.490Z,100862.27
2019-05-17T11:59:19.981Z,100879.17
2019-05-17T12:01:56.905Z,100880.36
2019-05-17T12:04:30.254Z,100872.42
2019-05-17T12:07:00.839Z,100874.37
2019-05-17T12:09:37.358Z,100872.39
2019-05-17T12:12:03.964Z,100867.17
2019-05-17T12:14:34.731Z,100871.48
2019-05-17T12:17:05.679Z,100867.19
2019-05-17T12:19:37.364Z,100865.79
2019-05-17T12:22:08.427Z,100869.74
2019-05-17T12:24:39.167Z,100865.47
2019-05-17T12:27:10.244Z,100865.52
2019-05-17T12:29:41.207Z,100852.89
2019-05-17T12:32:16.847Z,100865.69
2019-05-17T12:34:44.855Z,100862.76
2019-05-17T12:37:15.915Z,100865.57
2019-05-17T12:39:46.874Z,100864.15
2019-05-17T12:42:17.712Z,100861.89
2019-05-17T12:44:48.792Z,100863.55
2019-05-17T12:47:19.770Z,100854.86
2019-05-17T12:49:50.813Z,100855.06
2019-05-17T12:52:21.658Z,100861.06
2019-05-17T12:54:59.188Z,100858.15
2019-05-17T12:57:29.702Z,100854.27
2019-05-17T13:00:00.681Z,100851.25
2019-05-17T13:02:31.599Z,100850.91
2019-05-17T13:05:02.075Z,100849.14
2019-05-17T13:07:32.619Z,100850.67
2019-05-17T13:10:05.051Z,100850.80
2019-05-17T13:12:35.674Z,100849.48
2019-05-17T13:15:07.637Z,100845.28
2019-05-17T13:17:38.236Z,100850.30
2019-05-17T13:20:09.970Z,100847.37
2019-05-17T13:22:40.526Z,100849.58
2019-05-17T13:25:12.291Z,100852.97
2019-05-17T13:27:42.960Z,100848.46
2019-05-17T13:30:14.207Z,100847.59
2019-05-17T13:32:45.290Z,100844.80
2019-05-17T13:35:17.277Z,100850.98
2019-05-17T13:37:47.919Z,100841.67
2019-05-17T13:40:18.777Z,100847.53
2019-05-17T13:42:49.938Z,100838.80
2019-05-17T13:45:21.009Z,100840.34
2019-05-17T13:47:51.956Z,100841.27
2019-05-17T13:50:23.064Z,100834.36
2019-05-17T13:52:54.064Z,100834.27
2019-05-17T13:55:25.037Z,100827.05
2019-05-17T13:57:55.897Z,100830.81
2019-05-17T14:00:26.955Z,100831.09
2019-05-17T14:02:57.911Z,100823.80
2019-05-17T14:05:28.972Z,100829.44
2019-05-17T14:07:59.931Z,100822.25
2019-05-17T14:10:32.215Z,100826.05
2019-05-17T14:13:03.072Z,100822.99
2019-05-17T14:15:34.018Z,100818.49
2019-05-17T14:18:04.994Z,100825.72
2019-05-17T14:20:36.051Z,100822.91
2019-05-17T14:23:06.890Z,100823.78
2019-05-17T14:25:38.546Z,100819.73
2019-05-17T14:28:11.416Z,100811.44
2019-05-17T14:30:42.239Z,100809.00
2019-05-17T14:33:13.077Z,100813.59
2019-05-17T14:35:44.159Z,100807.76
2019-05-17T14:38:15.219Z,100807.27
2019-05-17T14:41:05.458Z,100815.05
2019-05-17T14:43:19.282Z,100806.53
2019-05-17T14:45:50.342Z,100805.27
2019-05-17T14:48:21.307Z,100802.27
2019-05-17T14:50:52.238Z,100791.67
2019-05-17T14:53:23.094Z,100796.90
2019-05-17T14:55:53.959Z,100795.24
2019-05-17T14:58:24.910Z,100796.53
2019-05-17T15:00:55.777Z,100787.89
2019-05-17T15:03:26.623Z,100786.61
2019-05-17T15:05:57.701Z,100791.12
2019-05-17T15:08:28.763Z,100781.83
2019-05-17T15:10:59.825Z,100789.21
2019-05-17T15:13:30.785Z,100785.52
2019-05-17T15:16:01.723Z,100784.88
2019-05-17T15:18:32.809Z,100782.10
2019-05-17T15:21:03.760Z,100781.88
2019-05-17T15:23:34.819Z,100777.43
2019-05-17T15:26:05.775Z,100775.63
2019-05-17T15:28:36.822Z,100775.53
2019-05-17T15:31:07.823Z,100774.83
2019-05-17T15:33:38.755Z,100776.61
2019-05-17T15:36:09.697Z,100770.09
2019-05-17T15:38:40.655Z,100773.15
2019-05-17T15:41:11.731Z,100772.83
2019-05-17T15:43:42.676Z,100779.81
2019-05-17T15:46:13.426Z,100774.23
2019-05-17T15:48:44.506Z,100778.84
2019-05-17T15:51:15.468Z,100780.48
2019-05-17T15:53:46.406Z,100773.17
2019-05-17T15:56:17.362Z,100773.73
2019-05-17T15:58:48.238Z,100775.28
2019-05-17T16:01:19.176Z,100771.25
2019-05-17T16:03:50.151Z,100773.70
2019-05-17T16:06:21.226Z,100768.48
2019-05-17T16:08:52.153Z,100773.24
2019-05-17T16:11:23.011Z,100780.69
2019-05-17T16:13:54.070Z,100772.95
2019-05-17T16:16:24.928Z,100775.87
2019-05-17T16:18:56.013Z,100776.06
2019-05-17T16:21:26.855Z,100783.67
2019-05-17T16:23:57.719Z,100783.12
2019-05-17T16:26:28.659Z,100791.04
2019-05-17T16:28:59.634Z,100790.63
2019-05-17T16:31:30.491Z,100785.02
2019-05-17T16:34:01.550Z,100790.91
2019-05-17T16:36:32.398Z,100789.44
2019-05-17T16:39:08.219Z,100783.48
2019-05-17T16:41:37.302Z,100786.03
2019-05-17T16:44:08.333Z,100789.94
2019-05-17T16:46:39.109Z,100798.05
2019-05-17T16:49:10.045Z,100798.65
2019-05-17T16:51:40.805Z,100798.61
2019-05-17T16:54:11.876Z,100788.44
2019-05-17T16:56:42.429Z,100789.45
2019-05-17T16:59:13.385Z,100793.55
2019-05-17T17:01:44.452Z,100796.45
2019-05-17T17:04:15.389Z,100796.29
2019-05-17T17:06:46.243Z,100796.29
2019-05-17T17:09:17.434Z,100795.59
2019-05-17T17:11:47.971Z,100801.75
2019-05-17T17:14:18.931Z,100799.85
2019-05-17T17:16:49.887Z,100794.73
2019-05-17T17:19:20.543Z,100793.36
2019-05-17T17:21:51.603Z,100793.36
2019-05-17T17:24:22.765Z,100785.53
2019-05-17T17:26:53.637Z,100789.43
2019-05-17T17:29:24.889Z,100790.56
2019-05-17T17:31:55.540Z,100786.75
2019-05-17T17:34:26.192Z,100792.21
2019-05-17T17:36:57.133Z,100790.81
2019-05-17T17:39:28.112Z,100795.34
2019-05-17T17:41:58.842Z,100789.84
2019-05-17T17:44:29.906Z,100793.56
2019-05-17T17:47:00.915Z,100792.59
2019-05-17T17:49:32.147Z,100786.99
2019-05-17T17:52:02.984Z,100793.41
2019-05-17T17:54:34.044Z,100796.16
2019-05-17T17:57:05.265Z,100793.11
2019-05-17T17:59:36.493Z,100790.80
2019-05-17T18:02:07.331Z,100804.59
2019-05-17T18:04:38.215Z,100795.18
2019-05-17T18:07:09.250Z,100798.03
2019-05-17T18:09:40.438Z,100805.06
2019-05-17T18:12:11.084Z,100801.98
2019-05-17T18:14:42.017Z,100804.23
2019-05-17T18:17:12.878Z,100812.63
2019-05-17T18:19:43.954Z,100805.06
2019-05-17T18:22:15.834Z,100810.22
2019-05-17T18:24:46.894Z,100804.08
2019-05-17T18:27:17.955Z,100805.33
2019-05-17T18:29:48.996Z,100802.14
2019-05-17T18:32:19.955Z,100808.36
2019-05-17T18:34:51.035Z,100798.23
2019-05-17T18:37:24.666Z,100806.83
2019-05-17T18:39:55.690Z,100799.51
2019-05-17T18:42:26.364Z,100802.31
2019-05-17T18:44:57.422Z,100799.64
2019-05-17T18:47:28.487Z,100800.58
2019-05-17T18:49:59.547Z,100798.02
2019-05-17T18:52:30.400Z,100808.69
2019-05-17T18:55:01.462Z,100805.77
2019-05-17T18:57:32.426Z,100808.20
2019-05-17T19:00:03.566Z,100807.38
2019-05-17T19:02:34.130Z,100809.53
2019-05-17T19:05:07.498Z,100809.89
2019-05-17T19:07:38.095Z,100811.13
2019-05-17T19:10:09.300Z,100814.13
2019-05-17T19:12:39.964Z,100806.75
2019-05-17T19:15:11.580Z,100809.75
2019-05-17T19:17:42.234Z,100821.73
2019-05-17T19:20:14.216Z,100819.82
2019-05-17T19:22:45.929Z,100817.91
2019-05-17T19:25:17.774Z,100820.73
2019-05-17T19:27:48.300Z,100819.64
2019-05-17T19:30:19.483Z,100811.59
2019-05-17T19:32:50.537Z,100815.06
2019-05-17T19:35:21.603Z,100817.98
2019-05-17T19:37:54.380Z,100819.98
2019-05-17T19:40:25.047Z,100812.41
2019-05-17T19:42:56.113Z,100816.31
2019-05-17T19:45:27.072Z,100810.73
2019-05-17T19:47:57.910Z,100810.08
2019-05-17T19:50:28.995Z,100811.40
2019-05-17T19:52:59.952Z,100811.41
2019-05-17T19:55:33.339Z,100814.14
2019-05-17T19:58:07.497Z,100816.04
2019-05-17T20:00:38.435Z,100808.89
2019-05-17T20:03:09.407Z,100810.63
2019-05-17T20:05:40.468Z,100818.84
2019-05-17T20:08:11.325Z,100815.11
2019-05-17T20:10:42.679Z,100812.86
2019-05-17T20:13:13.239Z,100819.73
2019-05-17T20:15:44.076Z,100820.81
2019-05-17T20:18:15.043Z,100824.75
2019-05-17T20:20:45.993Z,100831.20
2019-05-17T20:23:17.995Z,100830.30
2019-05-17T20:25:49.137Z,100829.41
2019-05-17T20:28:20.119Z,100825.88
2019-05-17T20:30:51.175Z,100833.73
2019-05-17T20:33:22.137Z,100822.02
2019-05-17T20:35:52.980Z,100837.58
2019-05-17T20:38:24.051Z,100837.11
2019-05-17T20:40:54.996Z,100834.55
2019-05-17T20:43:26.060Z,100841.17
2019-05-17T20:45:57.029Z,100837.41
2019-05-17T20:48:27.869Z,100842.30
2019-05-17T20:50:58.944Z,100845.19
2019-05-17T20:53:29.792Z,100837.11
2019-05-17T20:56:00.777Z,100837.98
2019-05-17T20:58:31.867Z,100834.25
2019-05-17T21:01:02.780Z,100839.05
2019-05-17T21:03:33.838Z,100826.73
2019-05-17T21:06:05.090Z,100832.88
2019-05-17T21:08:45.662Z,100823.77
2019-05-17T21:11:08.458Z,100819.44
2019-05-17T21:13:39.327Z,100833.84
2019-05-17T21:16:10.066Z,100836.09
2019-05-17T21:18:41.025Z,100842.13
2019-05-17T21:21:11.863Z,100844.41
2019-05-17T21:23:43.961Z,100834.48
2019-05-17T21:26:15.007Z,100834.00
2019-05-17T21:28:47.275Z,100837.02
2019-05-17T21:31:18.273Z,100831.02
2019-05-17T21:33:49.233Z,100830.38
2019-05-17T21:36:20.081Z,100828.22
2019-05-17T21:38:51.145Z,100831.30
2019-05-17T21:41:22.108Z,100830.09
2019-05-17T21:43:53.166Z,100834.06
2019-05-17T21:46:24.124Z,100824.20
2019-05-17T21:48:54.980Z,100820.74
2019-05-17T21:51:26.037Z,100818.58
2019-05-17T21:53:57.098Z,100813.06
2019-05-17T21:56:28.157Z,100810.05
2019-05-17T21:58:58.997Z,100815.88
2019-05-17T22:01:32.838Z,100812.86
2019-05-17T22:04:03.999Z,100815.06
2019-05-17T22:06:34.635Z,100820.38
2019-05-17T22:09:07.731Z,100818.88
2019-05-17T22:11:40.235Z,100815.90
2019-05-17T22:14:11.213Z,100817.11
2019-05-17T22:16:42.252Z,100819.20
2019-05-17T22:19:13.230Z,100815.53
2019-05-17T22:21:44.066Z,100810.86
2019-05-17T22:24:16.169Z,100807.28
2019-05-17T22:26:47.386Z,100809.71
2019-05-17T22:29:18.270Z,100813.56
2019-05-17T22:31:49.352Z,100821.18
2019-05-17T22:34:20.198Z,100825.41
2019-05-17T22:36:51.040Z,100829.87
2019-05-17T22:39:22.120Z,100828.86
2019-05-17T22:41:53.063Z,100827.34
2019-05-17T22:44:23.925Z,100821.71
2019-05-17T22:46:55.001Z,100822.46
2019-05-17T22:49:25.960Z,100819.84
2019-05-17T22:51:56.924Z,100815.91
2019-05-17T22:54:27.972Z,100816.47
2019-05-17T22:56:58.917Z,100814.31
2019-05-17T22:59:29.890Z,100818.03
2019-05-17T23:02:00.953Z,100819.17
2019-05-17T23:04:31.791Z,100811.34
2019-05-17T23:07:02.648Z,100813.45
2019-05-17T23:09:33.724Z,100820.17
2019-05-17T23:12:04.685Z,100811.77
2019-05-17T23:14:35.545Z,100812.05
2019-05-17T23:17:06.603Z,100815.23
2019-05-17T23:19:37.561Z,100812.29
2019-05-17T23:22:08.617Z,100812.56
2019-05-17T23:24:40.498Z,100813.55
2019-05-17T23:27:11.765Z,100814.86
2019-05-17T23:29:42.620Z,100816.74
2019-05-17T23:32:13.683Z,100818.17
2019-05-17T23:34:44.636Z,100821.95
2019-05-17T23:37:15.699Z,100813.48
2019-05-17T23:39:46.965Z,100811.24
2019-05-17T23:42:18.008Z,100816.94
2019-05-17T23:44:49.479Z,100818.27
2019-05-17T23:47:20.554Z,100812.95
2019-05-17T23:49:51.512Z,100813.59
2019-05-17T23:52:22.417Z,100815.65
2019-05-17T23:54:53.534Z,100811.59
2019-05-17T23:57:24.472Z,100811.13
2019-05-17T23:59:55.552Z,100813.24
